Decoded Metar for CYGR (ILES DE LA MADELEINE in QC, CANADA) (IATA:YGR) | Meteo·Mobile Aviation Weather
aviador You're here:

CYGR Decoded Metar

ILES DE LA MADELEINE in QC, CANADA
Report Time2018-11-17 02:00:00
UTC Time2018-11-17 03:11:55
Flight Rules Old
Wind050° at 29 Gusting to 39 kt
W.Decomp.*RWY 07: 29.0 kt HW 0.5 kt LCW
RWY 34: 0.5 kt HW 29.0 kt RCW
W.Rank050° ranks 32
Current wind is above 050° avg. (11.5)
Visibility1609 m
Phenomena:Blowing Snow
Light Snow
Clouds:N/A
Expected CloudBase > 400 ft AGL from Temp-Dew spread
Ceiling400 ft
Temp-1°C (ISA -16)
Dew Point-2°C (93% RH)
AAT-13.7°C
QNH994 hPa
Density Alt-1,191 ft
Elevation33 ft
Report Wrong Elevation
Raw Report
CYGR 170200Z 05029G39KT 1SM -SN BLSN VV004 M01/M02 A2936 RMK BLSN8
/S02/ PRESFR SLP946=

Extra information for CYGR:More info

Metar Taf Metar & Taf Last 4 Metars F.Rules Stats Wind Profile Meteogram Temp Stats Airport Information Weather charts Add Link Nearby VenuesMetar ALERT Operation Metar Decoded Social comments